Lincoln Heights, Pennsylvania
Current Conditions -  °F | °C
As of 4:54 AM on Thursday 23 Oct 2014 (Local Time) from KRDG Reporting Station
Light Rain Light Rain  
Wind Chill: 52°   Ceiling: 2500
Heat Index: 52°   Visibility: 10mi
Dew Point: 43°   Wind: 13mph
Humidity: 71%   Direction: 330°NNW
Pressure: 29.83"   Gusts: NA
Location:  40.2313°N, 75.8555°W
Report Text: KRDG 230854Z 33011KT 10SM -RA OVC025 11/06 A2983 RMK AO2 RAB51 SLP106 P0000 60000 T01110061 53001
Loading
Personal Weather Stations






























Interactive Weather Map
Tropical Storm Tracking
New forecast layout! Learn more

10-Day Weather Forecast

Advertisements
Track Severe Weather on mobile